createdAt,value
2023-04-23T00:00:15.919Z,12.70
2023-04-23T00:02:47.155Z,12.60
2023-04-23T00:05:14.839Z,12.60
2023-04-23T00:07:42.432Z,12.60
2023-04-23T00:10:10.156Z,12.70
2023-04-23T00:12:37.455Z,12.70
2023-04-23T00:15:06.911Z,12.80
2023-04-23T00:17:33.982Z,12.80
2023-04-23T00:20:01.004Z,12.80
2023-04-23T00:22:28.161Z,12.70
2023-04-23T00:24:55.155Z,12.60
2023-04-23T00:27:22.387Z,12.50
2023-04-23T00:29:51.432Z,12.50
2023-04-23T00:32:18.670Z,12.50
2023-04-23T00:34:48.840Z,12.60
2023-04-23T00:37:16.422Z,12.70
2023-04-23T00:39:43.969Z,12.70
2023-04-23T00:42:12.746Z,12.70
2023-04-23T00:44:42.296Z,12.60
2023-04-23T00:47:10.431Z,12.60
2023-04-23T00:49:39.477Z,12.60
2023-04-23T00:52:06.895Z,12.60
2023-04-23T00:54:34.286Z,12.60
2023-04-23T00:57:02.257Z,12.50
2023-04-23T00:59:31.251Z,12.50
2023-04-23T01:01:59.309Z,12.50
2023-04-23T01:04:29.757Z,12.60
2023-04-23T01:06:58.168Z,12.50
2023-04-23T01:09:27.781Z,12.50
2023-04-23T01:11:55.324Z,12.50
2023-04-23T01:14:22.385Z,12.50
2023-04-23T01:16:50.213Z,12.50
2023-04-23T01:19:17.875Z,12.40
2023-04-23T01:21:45.454Z,12.50
2023-04-23T01:24:12.859Z,12.40
2023-04-23T01:26:40.851Z,12.30
2023-04-23T01:29:09.967Z,12.30
2023-04-23T01:31:37.591Z,12.20
2023-04-23T01:34:05.402Z,12.20
2023-04-23T01:36:33.647Z,12.20
2023-04-23T01:39:00.702Z,12.30
2023-04-23T01:41:28.586Z,12.40
2023-04-23T01:44:12.630Z,12.30
2023-04-23T01:46:39.852Z,12.20
2023-04-23T01:49:06.983Z,12.20
2023-04-23T01:51:34.015Z,12.20
2023-04-23T01:54:01.420Z,12.20
2023-04-23T01:56:28.997Z,12.20
2023-04-23T01:58:56.218Z,12.20
2023-04-23T02:01:23.551Z,12.10
2023-04-23T02:03:51.320Z,12.00
2023-04-23T02:06:18.433Z,12.00
2023-04-23T02:08:45.493Z,12.00
2023-04-23T02:11:12.488Z,12.00
2023-04-23T02:13:39.476Z,11.90
2023-04-23T02:16:07.422Z,11.90
2023-04-23T02:18:34.541Z,11.90
2023-04-23T02:21:02.052Z,11.80
2023-04-23T02:23:29.074Z,11.70
2023-04-23T02:25:56.045Z,11.70
2023-04-23T02:28:22.976Z,11.70
2023-04-23T02:30:49.964Z,11.70
2023-04-23T02:33:16.996Z,11.80
2023-04-23T02:35:44.000Z,11.80
2023-04-23T02:38:11.025Z,11.80
2023-04-23T02:40:38.027Z,11.90
2023-04-23T02:43:05.099Z,11.90
2023-04-23T02:45:32.097Z,11.80
2023-04-23T02:47:59.285Z,11.80
2023-04-23T02:50:26.354Z,11.70
2023-04-23T02:52:53.393Z,11.70
2023-04-23T02:55:20.432Z,11.70
2023-04-23T02:57:47.611Z,11.70
2023-04-23T03:00:15.630Z,11.70
2023-04-23T03:02:44.000Z,11.60
2023-04-23T03:05:11.302Z,11.70
2023-04-23T03:07:38.370Z,11.70
2023-04-23T03:10:06.808Z,11.70
2023-04-23T03:12:33.881Z,11.60
2023-04-23T03:15:00.853Z,11.60
2023-04-23T03:17:30.470Z,11.60
2023-04-23T03:19:57.888Z,11.60
2023-04-23T03:22:25.152Z,11.70
2023-04-23T03:24:52.125Z,11.70
2023-04-23T03:27:20.439Z,11.70
2023-04-23T03:29:47.616Z,11.70
2023-04-23T03:32:14.611Z,11.60
2023-04-23T03:34:41.896Z,11.60
2023-04-23T03:37:09.190Z,11.60
2023-04-23T03:39:38.391Z,11.60
2023-04-23T03:46:30.883Z,11.60
2023-04-23T03:48:58.020Z,11.60
2023-04-23T03:51:28.301Z,11.70
2023-04-23T03:53:55.556Z,11.70
2023-04-23T03:56:27.169Z,11.80
2023-04-23T03:59:20.680Z,11.80
2023-04-23T04:01:49.816Z,11.80
2023-04-23T04:04:18.516Z,11.80
2023-04-23T04:06:46.151Z,11.80
2023-04-23T04:09:13.112Z,11.80
2023-04-23T04:11:41.193Z,11.80
2023-04-23T04:14:09.324Z,11.80
2023-04-23T04:16:36.311Z,11.80
2023-04-23T04:19:03.629Z,11.80
2023-04-23T04:21:30.601Z,11.90
2023-04-23T04:23:57.662Z,11.80
2023-04-23T04:26:25.450Z,11.80
2023-04-23T04:28:53.321Z,11.70
2023-04-23T04:31:22.127Z,11.60
2023-04-23T04:33:49.233Z,11.50
2023-04-23T04:36:16.202Z,11.60
2023-04-23T04:38:43.950Z,11.60
2023-04-23T04:41:11.584Z,11.70
2023-04-23T04:43:39.071Z,11.70
2023-04-23T04:46:07.457Z,11.70
2023-04-23T04:48:34.693Z,11.80
2023-04-23T04:51:01.669Z,11.70
2023-04-23T04:53:28.606Z,11.70
2023-04-23T04:55:55.591Z,11.70
2023-04-23T04:58:22.510Z,11.60
2023-04-23T05:00:52.104Z,11.60
2023-04-23T05:03:19.905Z,11.50
2023-04-23T05:05:48.669Z,11.50
2023-04-23T05:08:17.449Z,11.40
2023-04-23T05:10:44.656Z,11.30
2023-04-23T05:13:11.582Z,11.10
2023-04-23T05:15:38.564Z,10.90
2023-04-23T05:18:06.379Z,10.80
2023-04-23T05:20:33.522Z,10.70
2023-04-23T05:23:02.305Z,10.70
2023-04-23T05:25:32.601Z,10.70
2023-04-23T05:27:59.575Z,10.70
2023-04-23T05:30:26.685Z,10.70
2023-04-23T05:32:53.684Z,10.70
2023-04-23T05:35:20.732Z,10.70
2023-04-23T05:37:47.686Z,10.70
2023-04-23T05:40:14.726Z,10.70
2023-04-23T05:42:41.694Z,10.70
2023-04-23T05:45:14.496Z,10.70
2023-04-23T05:47:41.465Z,10.70
2023-04-23T05:50:08.693Z,10.70
2023-04-23T05:52:37.513Z,10.60
2023-04-23T05:55:05.283Z,10.60
2023-04-23T05:57:32.318Z,10.60
2023-04-23T05:59:59.311Z,10.70
2023-04-23T06:02:26.432Z,10.70
2023-04-23T06:04:53.805Z,10.70
2023-04-23T06:07:21.071Z,10.70
2023-04-23T06:09:48.082Z,10.70
2023-04-23T06:12:15.133Z,10.70
2023-04-23T06:14:42.517Z,10.70
2023-04-23T06:17:09.848Z,10.60
2023-04-23T06:19:36.829Z,10.60
2023-04-23T06:22:03.868Z,10.60
2023-04-23T06:24:31.038Z,10.60
2023-04-23T06:26:58.056Z,10.60
2023-04-23T06:29:26.428Z,10.60
2023-04-23T06:32:03.561Z,10.70
2023-04-23T06:34:30.702Z,10.80
2023-04-23T06:36:59.140Z,10.80
2023-04-23T06:39:26.203Z,10.80
2023-04-23T06:41:54.651Z,10.80
2023-04-23T06:44:54.171Z,10.90
2023-04-23T06:47:36.456Z,11.00
2023-04-23T06:50:03.644Z,11.00
2023-04-23T06:52:38.855Z,11.10
2023-04-23T06:55:56.908Z,11.20
2023-04-23T06:58:31.042Z,11.40
2023-04-23T07:01:04.238Z,11.60
2023-04-23T07:03:33.569Z,11.60
2023-04-23T07:06:20.614Z,11.60
2023-04-23T07:08:47.525Z,11.70
2023-04-23T07:11:14.560Z,11.80
2023-04-23T07:13:42.344Z,11.90
2023-04-23T07:16:09.356Z,12.00
2023-04-23T07:18:36.373Z,12.10
2023-04-23T07:21:03.554Z,12.20
2023-04-23T07:23:30.456Z,12.30
2023-04-23T07:25:58.394Z,12.30
2023-04-23T07:28:25.293Z,12.30
2023-04-23T07:30:52.375Z,12.20
2023-04-23T07:33:19.367Z,12.20
2023-04-23T07:36:01.966Z,12.20
2023-04-23T07:38:28.863Z,12.20
2023-04-23T07:40:55.798Z,12.30
2023-04-23T07:43:22.838Z,12.50
2023-04-23T07:45:49.889Z,12.50
2023-04-23T07:48:16.859Z,12.50
2023-04-23T07:50:43.844Z,12.50
2023-04-23T07:53:10.899Z,12.60
2023-04-23T07:55:37.875Z,12.80
2023-04-23T07:58:04.842Z,13.00
2023-04-23T08:00:31.825Z,13.00
2023-04-23T08:02:59.860Z,13.10
2023-04-23T08:05:27.136Z,13.10
2023-04-23T08:07:54.028Z,13.10
2023-04-23T08:10:21.005Z,13.10
2023-04-23T08:12:47.965Z,13.10
2023-04-23T08:15:14.903Z,13.20
2023-04-23T08:17:44.343Z,13.20
2023-04-23T08:20:11.423Z,13.30
2023-04-23T08:22:38.323Z,13.40
2023-04-23T08:25:05.728Z,13.50
2023-04-23T08:27:32.626Z,13.50
2023-04-23T08:29:59.539Z,13.20
2023-04-23T08:32:26.496Z,13.00
2023-04-23T08:34:53.408Z,13.10
2023-04-23T08:37:30.179Z,13.20
2023-04-23T08:39:58.489Z,13.20
2023-04-23T08:42:55.280Z,13.30
2023-04-23T08:45:22.964Z,13.50
2023-04-23T08:47:49.982Z,13.70
2023-04-23T08:50:20.271Z,13.90
2023-04-23T08:52:57.821Z,13.80
2023-04-23T08:55:25.886Z,13.70
2023-04-23T08:57:53.010Z,13.70
2023-04-23T09:00:23.196Z,13.80
2023-04-23T09:02:50.492Z,13.70
2023-04-23T09:05:17.927Z,13.70
2023-04-23T09:07:45.324Z,13.80
2023-04-23T09:10:14.830Z,13.80
2023-04-23T09:12:45.246Z,13.80
2023-04-23T09:15:13.089Z,13.90
2023-04-23T09:17:45.161Z,14.00
2023-04-23T09:20:14.064Z,14.00
2023-04-23T09:22:49.448Z,14.10
2023-04-23T09:25:18.599Z,14.30
2023-04-23T09:27:46.938Z,14.40
2023-04-23T09:30:15.284Z,14.50
2023-04-23T09:32:43.899Z,14.60
2023-04-23T09:35:14.101Z,14.80
2023-04-23T09:37:48.661Z,14.90
2023-04-23T09:40:18.631Z,15.00
2023-04-23T09:42:54.677Z,15.10
2023-04-23T09:45:25.722Z,15.30
2023-04-23T09:47:58.010Z,15.40
2023-04-23T09:50:37.103Z,15.50
2023-04-23T09:53:05.318Z,15.50
2023-04-23T09:55:39.327Z,15.50
2023-04-23T09:58:10.885Z,15.60
2023-04-23T10:00:39.508Z,15.70
2023-04-23T10:03:07.993Z,15.90
2023-04-23T10:08:14.651Z,16.30
2023-04-23T10:13:12.026Z,16.50
2023-04-23T10:15:39.515Z,16.50
2023-04-23T10:18:07.559Z,16.60
2023-04-23T10:20:35.957Z,16.60
2023-04-23T10:23:03.630Z,16.60
2023-04-23T10:25:31.036Z,16.50
2023-04-23T10:28:00.130Z,16.40
2023-04-23T10:30:27.769Z,16.30
2023-04-23T10:32:57.177Z,16.40
2023-04-23T10:35:24.181Z,16.50
2023-04-23T10:37:51.870Z,16.60
2023-04-23T10:40:30.654Z,16.50
2023-04-23T10:42:58.233Z,16.40
2023-04-23T10:45:25.904Z,16.20
2023-04-23T10:47:56.466Z,16.10
2023-04-23T10:50:37.971Z,16.00
2023-04-23T10:53:17.983Z,16.00
2023-04-23T10:55:44.975Z,16.20
2023-04-23T10:58:11.941Z,16.30
2023-04-23T11:00:45.627Z,16.40
2023-04-23T11:03:44.544Z,16.60
2023-04-23T11:06:19.964Z,16.90
2023-04-23T11:08:54.358Z,17.30
2023-04-23T11:11:40.082Z,17.60
2023-04-23T11:14:16.509Z,18.00
2023-04-23T11:16:43.796Z,18.30
2023-04-23T11:19:17.890Z,18.60
2023-04-23T11:22:06.598Z,18.90
2023-04-23T11:24:42.460Z,19.20
2023-04-23T11:27:14.920Z,19.60
2023-04-23T11:29:47.865Z,19.80
2023-04-23T11:32:17.132Z,20.10
2023-04-23T11:34:48.148Z,20.30
2023-04-23T11:37:15.908Z,20.40
2023-04-23T11:39:44.818Z,20.60
2023-04-23T11:42:13.262Z,20.80
2023-04-23T11:44:46.792Z,21.00
2023-04-23T11:47:16.344Z,21.10
2023-04-23T11:49:45.052Z,21.10
2023-04-23T11:52:14.560Z,21.20
2023-04-23T11:54:42.373Z,21.20
2023-04-23T11:57:10.452Z,21.20
2023-04-23T11:59:37.960Z,21.20
2023-04-23T12:02:05.036Z,21.30
2023-04-23T12:04:33.371Z,21.30
2023-04-23T12:07:00.750Z,21.10
2023-04-23T12:09:29.196Z,21.00
2023-04-23T12:11:58.398Z,20.90
2023-04-23T12:14:30.799Z,20.70
2023-04-23T12:16:59.134Z,20.50
2023-04-23T12:19:30.936Z,20.40
2023-04-23T12:22:00.575Z,20.30
2023-04-23T12:24:44.725Z,20.30
2023-04-23T12:27:15.859Z,20.20
2023-04-23T12:29:43.362Z,20.20
2023-04-23T12:32:11.779Z,19.90
2023-04-23T12:34:54.857Z,19.70
2023-04-23T12:37:30.669Z,19.60
2023-04-23T12:39:59.434Z,19.50
2023-04-23T12:42:26.786Z,19.40
2023-04-23T12:44:56.038Z,19.40
2023-04-23T12:47:23.097Z,19.60
2023-04-23T12:49:53.498Z,19.70
2023-04-23T12:52:21.134Z,19.80
2023-04-23T12:54:52.232Z,19.70
2023-04-23T12:57:23.347Z,19.50
2023-04-23T12:59:50.866Z,19.50
2023-04-23T13:02:18.047Z,19.50
2023-04-23T13:04:45.045Z,19.50
2023-04-23T13:07:11.990Z,19.60
2023-04-23T13:09:38.919Z,19.50
2023-04-23T13:12:05.995Z,19.30
2023-04-23T13:18:33.918Z,19.10
2023-04-23T13:21:00.958Z,19.30
2023-04-23T13:23:27.834Z,19.50
2023-04-23T13:25:54.854Z,19.60
2023-04-23T13:28:22.726Z,19.60
2023-04-23T13:30:49.614Z,19.70
2023-04-23T13:33:16.543Z,20.00
2023-04-23T13:35:43.484Z,20.30
2023-04-23T13:38:10.703Z,20.60
2023-04-23T13:40:38.339Z,20.80
2023-04-23T13:43:06.234Z,20.80
2023-04-23T13:45:33.327Z,20.80
2023-04-23T13:48:02.521Z,20.70
2023-04-23T13:50:29.671Z,20.60
2023-04-23T13:52:56.759Z,20.60
2023-04-23T13:55:23.630Z,20.60
2023-04-23T13:57:50.635Z,20.70
2023-04-23T14:00:19.577Z,20.70
2023-04-23T14:02:46.776Z,21.00
2023-04-23T14:05:13.754Z,21.30
2023-04-23T14:07:40.616Z,21.30
2023-04-23T14:10:08.186Z,21.10
2023-04-23T14:12:35.738Z,20.90
2023-04-23T14:15:03.057Z,20.60
2023-04-23T14:17:30.511Z,20.40
2023-04-23T14:19:57.550Z,20.30
2023-04-23T14:22:24.535Z,20.30
2023-04-23T14:25:01.481Z,20.20
2023-04-23T14:27:32.038Z,20.30
2023-04-23T14:30:05.406Z,20.20
2023-04-23T14:32:32.530Z,20.00
2023-04-23T14:34:59.537Z,20.00
2023-04-23T14:37:26.534Z,20.10
2023-04-23T14:39:57.884Z,20.20
2023-04-23T14:42:26.586Z,20.10
2023-04-23T14:44:56.782Z,20.10
2023-04-23T14:47:23.608Z,20.10
2023-04-23T14:49:51.339Z,20.10
2023-04-23T14:52:18.265Z,20.20
2023-04-23T14:54:45.489Z,20.10
2023-04-23T14:57:12.407Z,20.10
2023-04-23T14:59:39.751Z,20.00
2023-04-23T15:02:12.236Z,19.80
2023-04-23T15:04:39.420Z,19.70
2023-04-23T15:07:06.373Z,19.60
2023-04-23T15:09:33.769Z,19.60
2023-04-23T15:12:00.988Z,19.70
2023-04-23T15:14:38.491Z,19.80
2023-04-23T15:17:05.502Z,19.90
2023-04-23T15:19:32.989Z,19.80
2023-04-23T15:21:59.894Z,19.70
2023-04-23T15:24:26.773Z,19.60
2023-04-23T15:26:55.089Z,19.60
2023-04-23T15:29:24.373Z,19.40
2023-04-23T15:31:57.825Z,19.30
2023-04-23T15:34:25.023Z,19.20
2023-04-23T15:36:51.974Z,19.10
2023-04-23T15:39:18.883Z,19.00
2023-04-23T15:41:46.444Z,19.10
2023-04-23T15:44:13.521Z,19.10
2023-04-23T15:46:40.803Z,19.00
2023-04-23T15:49:08.011Z,19.00
2023-04-23T15:51:35.093Z,18.90
2023-04-23T15:54:02.783Z,18.80
2023-04-23T15:56:29.775Z,18.80
2023-04-23T15:58:57.137Z,18.80
2023-04-23T16:01:26.901Z,18.80
2023-04-23T16:04:09.374Z,18.90
2023-04-23T16:06:37.201Z,19.00
2023-04-23T16:09:07.254Z,19.00
2023-04-23T16:11:38.444Z,19.00
2023-04-23T16:14:06.610Z,19.00
2023-04-23T16:16:33.673Z,18.90
2023-04-23T16:19:01.957Z,18.90
2023-04-23T16:21:28.900Z,18.80
2023-04-23T16:23:55.894Z,18.60
2023-04-23T16:26:22.882Z,18.50
2023-04-23T16:29:00.553Z,18.30
2023-04-23T16:31:33.284Z,18.20
2023-04-23T16:34:00.474Z,18.20
2023-04-23T16:36:27.997Z,18.10
2023-04-23T16:38:55.180Z,17.90
2023-04-23T16:41:22.123Z,17.80
2023-04-23T16:43:49.093Z,17.70
2023-04-23T16:46:16.144Z,17.60
2023-04-23T16:48:46.356Z,17.60
2023-04-23T16:51:13.400Z,17.70
2023-04-23T16:53:49.603Z,17.70
2023-04-23T16:56:16.644Z,17.70
2023-04-23T16:58:46.505Z,17.60
2023-04-23T17:01:16.608Z,17.50
2023-04-23T17:03:46.045Z,17.40
2023-04-23T17:06:29.709Z,17.30
2023-04-23T17:08:59.103Z,17.10
2023-04-23T17:11:28.867Z,17.10
2023-04-23T17:13:57.164Z,17.10
2023-04-23T17:16:27.665Z,17.10
2023-04-23T17:18:55.730Z,17.10
2023-04-23T17:21:23.557Z,16.90
2023-04-23T17:23:50.806Z,16.60
2023-04-23T17:26:21.392Z,16.50
2023-04-23T17:28:48.889Z,16.30
2023-04-23T17:31:16.345Z,16.20
2023-04-23T17:33:44.990Z,16.20
2023-04-23T17:36:12.052Z,16.10
2023-04-23T17:38:49.496Z,16.10
2023-04-23T17:41:17.778Z,16.00
2023-04-23T17:44:15.733Z,16.00
2023-04-23T17:46:43.165Z,15.70
2023-04-23T17:49:10.770Z,15.10
2023-04-23T17:51:38.224Z,14.60
2023-04-23T17:54:05.929Z,14.20
2023-04-23T17:56:32.908Z,13.80
2023-04-23T17:58:59.825Z,13.50
2023-04-23T18:01:27.102Z,13.40
2023-04-23T18:03:54.911Z,13.10
2023-04-23T18:06:26.048Z,12.80
2023-04-23T18:08:52.952Z,12.60
2023-04-23T18:11:20.260Z,12.50
2023-04-23T18:13:53.600Z,12.50
2023-04-23T18:16:21.177Z,12.50
2023-04-23T18:18:49.578Z,12.40
2023-04-23T18:21:18.312Z,12.30
2023-04-23T18:23:46.478Z,12.30
2023-04-23T18:26:13.945Z,12.40
2023-04-23T18:28:40.950Z,12.50
2023-04-23T18:31:08.122Z,12.70
2023-04-23T18:34:09.032Z,12.70
2023-04-23T18:36:43.972Z,12.70
2023-04-23T18:39:11.087Z,12.60
2023-04-23T18:41:40.143Z,12.60
2023-04-23T18:44:07.577Z,12.50
2023-04-23T18:46:34.577Z,12.50
2023-04-23T18:49:29.665Z,12.50
2023-04-23T18:52:03.583Z,12.50
2023-04-23T18:54:31.499Z,12.50
2023-04-23T18:57:27.345Z,12.50
2023-04-23T18:59:54.659Z,12.60
2023-04-23T19:02:34.655Z,12.60
2023-04-23T19:05:04.134Z,12.60
2023-04-23T19:07:37.366Z,12.50
2023-04-23T19:10:52.289Z,12.40
2023-04-23T19:13:22.040Z,12.30
2023-04-23T19:15:50.959Z,12.30
2023-04-23T19:18:18.995Z,12.20
2023-04-23T19:20:49.325Z,12.20
2023-04-23T19:23:41.234Z,12.30
2023-04-23T19:26:11.776Z,12.30
2023-04-23T19:28:42.310Z,12.20
2023-04-23T19:31:21.765Z,12.20
2023-04-23T19:33:53.614Z,12.00
2023-04-23T19:36:21.393Z,11.90
2023-04-23T19:38:50.450Z,11.70
2023-04-23T19:41:37.664Z,11.50
2023-04-23T19:44:05.914Z,11.40
2023-04-23T19:46:48.848Z,11.30
2023-04-23T19:49:26.044Z,11.30
2023-04-23T19:52:09.180Z,11.20
2023-04-23T19:54:36.742Z,11.10
2023-04-23T19:57:04.114Z,11.20
2023-04-23T19:59:31.183Z,11.20
2023-04-23T20:01:58.186Z,11.10
2023-04-23T20:04:25.885Z,11.10
2023-04-23T20:06:52.913Z,11.00
2023-04-23T20:09:21.687Z,10.90
2023-04-23T20:11:48.668Z,10.80
2023-04-23T20:14:16.816Z,10.80
2023-04-23T20:16:46.731Z,10.80
2023-04-23T20:19:15.305Z,10.80
2023-04-23T20:21:46.010Z,10.70
2023-04-23T20:24:15.624Z,10.70
2023-04-23T20:26:44.728Z,10.80
2023-04-23T20:29:12.663Z,10.80
2023-04-23T20:31:46.469Z,10.90
2023-04-23T20:34:26.896Z,10.90
2023-04-23T20:37:06.643Z,10.80
2023-04-23T20:39:47.040Z,10.70
2023-04-23T20:42:15.176Z,10.70
2023-04-23T20:44:49.544Z,10.70
2023-04-23T20:50:15.854Z,10.60
2023-04-23T20:53:00.042Z,10.60
2023-04-23T20:55:27.452Z,10.60
2023-04-23T20:57:54.404Z,10.60
2023-04-23T21:00:22.526Z,10.60
2023-04-23T21:02:49.694Z,10.60
2023-04-23T21:05:16.814Z,10.50
2023-04-23T21:07:44.509Z,10.50
2023-04-23T21:10:11.842Z,10.50
2023-04-23T21:12:39.837Z,10.40
2023-04-23T21:15:08.435Z,10.30
2023-04-23T21:17:35.672Z,10.30
2023-04-23T21:20:02.738Z,10.20
2023-04-23T21:22:30.223Z,10.20
2023-04-23T21:24:57.526Z,10.20
2023-04-23T21:27:24.543Z,10.20
2023-04-23T21:29:51.520Z,10.30
2023-04-23T21:32:18.760Z,10.40
2023-04-23T21:34:45.985Z,10.40
2023-04-23T21:37:12.982Z,10.30
2023-04-23T21:39:47.952Z,10.30
2023-04-23T21:42:14.954Z,10.20
2023-04-23T21:44:42.638Z,10.20
2023-04-23T21:47:10.959Z,10.10
2023-04-23T21:49:39.777Z,10.10
2023-04-23T21:55:24.534Z,10.10
2023-04-23T21:57:52.714Z,10.00
2023-04-23T22:00:20.481Z,10.00
2023-04-23T22:02:47.971Z,9.90
2023-04-23T22:05:20.272Z,9.90
2023-04-23T22:07:49.060Z,9.80
2023-04-23T22:10:17.052Z,9.80
2023-04-23T22:12:45.403Z,9.70
2023-04-23T22:15:17.364Z,9.70
2023-04-23T22:17:46.397Z,9.60
2023-04-23T22:20:14.362Z,9.60
2023-04-23T22:22:42.427Z,9.50
2023-04-23T22:25:10.601Z,9.50
2023-04-23T22:27:39.595Z,9.40
2023-04-23T22:30:08.296Z,9.40
2023-04-23T22:32:36.723Z,9.40
2023-04-23T22:35:04.433Z,9.30
2023-04-23T22:37:32.249Z,9.30
2023-04-23T22:40:00.049Z,9.30
2023-04-23T22:42:27.099Z,9.20
2023-04-23T22:44:54.028Z,9.30
2023-04-23T22:47:21.219Z,9.20
2023-04-23T22:49:48.238Z,9.20
2023-04-23T22:52:15.984Z,9.30
2023-04-23T22:54:43.776Z,9.30
2023-04-23T22:57:11.840Z,9.30
2023-04-23T22:59:42.303Z,9.20
2023-04-23T23:02:09.553Z,9.20
2023-04-23T23:04:38.637Z,9.20
2023-04-23T23:07:06.528Z,9.20
2023-04-23T23:09:33.886Z,9.20
2023-04-23T23:12:05.147Z,9.10
2023-04-23T23:14:33.357Z,9.10
2023-04-23T23:17:00.365Z,9.10
2023-04-23T23:19:28.065Z,9.10
2023-04-23T23:21:55.190Z,9.10
2023-04-23T23:24:22.364Z,9.10
2023-04-23T23:26:50.051Z,9.10
2023-04-23T23:29:17.452Z,9.10
2023-04-23T23:31:44.704Z,9.10
2023-04-23T23:34:12.144Z,9.10
2023-04-23T23:36:39.320Z,9.10
2023-04-23T23:39:06.955Z,9.10
2023-04-23T23:41:34.012Z,9.20
2023-04-23T23:44:00.997Z,9.10
2023-04-23T23:46:28.196Z,9.10
2023-04-23T23:48:55.525Z,9.00
2023-04-23T23:51:22.516Z,9.00
2023-04-23T23:53:49.377Z,9.00
2023-04-23T23:56:16.355Z,9.00
2023-04-23T23:58:43.291Z,9.00
